createdAt,value
2023-07-30T00:01:01.006Z,20.01
2023-07-30T00:03:40.726Z,20.03
2023-07-30T00:06:07.401Z,19.78
2023-07-30T00:08:33.832Z,19.70
2023-07-30T00:11:00.361Z,19.55
2023-07-30T00:13:26.923Z,19.39
2023-07-30T00:15:56.451Z,19.23
2023-07-30T00:18:22.913Z,19.09
2023-07-30T00:20:49.450Z,19.02
2023-07-30T00:23:15.812Z,19.47
2023-07-30T00:25:42.171Z,19.93
2023-07-30T00:28:08.654Z,20.32
2023-07-30T00:30:35.025Z,20.29
2023-07-30T00:33:01.525Z,20.00
2023-07-30T00:35:28.233Z,19.65
2023-07-30T00:37:54.612Z,19.39
2023-07-30T00:40:21.012Z,19.17
2023-07-30T00:42:47.506Z,18.89
2023-07-30T00:45:13.873Z,18.77
2023-07-30T00:47:41.639Z,18.56
2023-07-30T00:50:09.394Z,18.39
2023-07-30T00:52:36.141Z,18.28
2023-07-30T00:55:08.252Z,18.18
2023-07-30T00:57:37.525Z,18.22
2023-07-30T01:00:09.809Z,18.19
2023-07-30T01:02:37.627Z,18.38
2023-07-30T01:05:04.964Z,18.68
2023-07-30T01:07:32.197Z,18.72
2023-07-30T01:09:59.654Z,18.69
2023-07-30T01:12:27.572Z,18.62
2023-07-30T01:14:56.157Z,18.44
2023-07-30T01:17:23.612Z,18.27
2023-07-30T01:19:55.543Z,18.26
2023-07-30T01:22:22.554Z,18.18
2023-07-30T01:24:49.858Z,18.17
2023-07-30T01:27:39.550Z,18.20
2023-07-30T01:30:11.865Z,18.09
2023-07-30T01:32:38.930Z,18.12
2023-07-30T01:35:08.730Z,18.13
2023-07-30T01:37:36.244Z,18.13
2023-07-30T01:40:03.134Z,18.14
2023-07-30T01:42:32.597Z,18.12
2023-07-30T01:44:59.107Z,18.10
2023-07-30T01:47:25.825Z,18.12
2023-07-30T01:49:52.242Z,18.12
2023-07-30T01:52:18.700Z,18.08
2023-07-30T01:54:45.721Z,18.04
2023-07-30T01:57:13.790Z,18.04
2023-07-30T01:59:40.307Z,18.01
2023-07-30T02:02:08.095Z,17.99
2023-07-30T02:04:34.878Z,17.98
2023-07-30T02:07:01.484Z,18.04
2023-07-30T02:09:27.861Z,18.01
2023-07-30T02:11:54.560Z,18.04
2023-07-30T02:14:21.047Z,18.05
2023-07-30T02:16:47.396Z,18.12
2023-07-30T02:19:14.030Z,18.15
2023-07-30T02:21:43.797Z,18.13
2023-07-30T02:24:12.424Z,18.17
2023-07-30T02:26:39.821Z,18.12
2023-07-30T02:29:06.570Z,18.14
2023-07-30T02:31:33.294Z,18.04
2023-07-30T02:33:59.866Z,18.04
2023-07-30T02:36:26.240Z,18.05
2023-07-30T02:38:52.604Z,18.08
2023-07-30T02:41:19.064Z,18.13
2023-07-30T02:43:45.412Z,18.19
2023-07-30T02:46:11.831Z,18.13
2023-07-30T02:48:38.696Z,18.15
2023-07-30T02:51:05.047Z,18.13
2023-07-30T02:53:31.390Z,18.14
2023-07-30T02:55:57.824Z,18.16
2023-07-30T02:58:24.201Z,18.12
2023-07-30T03:00:50.623Z,18.07
2023-07-30T03:03:17.918Z,18.11
2023-07-30T03:05:44.393Z,18.14
2023-07-30T03:08:10.853Z,18.17
2023-07-30T03:10:37.704Z,18.13
2023-07-30T03:13:04.177Z,18.15
2023-07-30T03:15:30.613Z,18.19
2023-07-30T03:17:57.113Z,18.19
2023-07-30T03:20:23.508Z,18.21
2023-07-30T03:22:49.862Z,18.18
2023-07-30T03:25:16.370Z,18.14
2023-07-30T03:27:42.746Z,18.05
2023-07-30T03:30:10.180Z,17.99
2023-07-30T03:32:36.584Z,17.98
2023-07-30T03:35:03.109Z,17.95
2023-07-30T03:37:29.565Z,17.89
2023-07-30T03:39:55.982Z,17.90
2023-07-30T03:42:22.365Z,17.86
2023-07-30T03:44:49.024Z,17.88
2023-07-30T03:47:15.487Z,17.90
2023-07-30T03:49:41.858Z,17.88
2023-07-30T03:52:08.254Z,17.87
2023-07-30T03:54:34.666Z,17.83
2023-07-30T03:57:01.547Z,17.83
2023-07-30T03:59:29.575Z,17.82
2023-07-30T04:01:56.294Z,17.81
2023-07-30T04:04:22.651Z,17.86
2023-07-30T04:06:49.042Z,17.88
2023-07-30T04:09:15.461Z,17.89
2023-07-30T04:11:41.815Z,17.89
2023-07-30T04:14:09.890Z,17.89
2023-07-30T04:16:36.584Z,17.84
2023-07-30T04:19:03.052Z,17.90
2023-07-30T04:21:29.396Z,18.25
2023-07-30T04:23:55.878Z,18.39
2023-07-30T04:26:22.221Z,19.01
2023-07-30T04:28:48.705Z,19.21
2023-07-30T04:31:15.146Z,19.37
2023-07-30T04:33:41.541Z,19.13
2023-07-30T04:36:08.915Z,18.85
2023-07-30T04:38:35.325Z,18.59
2023-07-30T04:41:01.806Z,18.40
2023-07-30T04:43:28.252Z,18.20
2023-07-30T04:45:54.711Z,18.07
2023-07-30T04:48:21.185Z,18.03
2023-07-30T04:50:47.568Z,18.04
2023-07-30T04:53:14.061Z,18.03
2023-07-30T04:55:40.440Z,18.06
2023-07-30T04:58:06.842Z,18.28
2023-07-30T05:00:33.325Z,18.58
2023-07-30T05:02:59.802Z,18.74
2023-07-30T05:05:26.276Z,18.87
2023-07-30T05:07:52.675Z,19.05
2023-07-30T05:10:19.340Z,18.95
2023-07-30T05:12:45.801Z,18.77
2023-07-30T05:15:12.170Z,18.59
2023-07-30T05:17:38.566Z,18.38
2023-07-30T05:20:05.868Z,18.25
2023-07-30T05:22:32.250Z,18.05
2023-07-30T05:24:58.705Z,18.02
2023-07-30T05:27:25.214Z,17.95
2023-07-30T05:29:51.640Z,17.96
2023-07-30T05:32:18.015Z,17.84
2023-07-30T05:34:44.472Z,17.76
2023-07-30T05:37:10.819Z,17.71
2023-07-30T05:39:37.280Z,17.67
2023-07-30T05:42:04.076Z,17.99
2023-07-30T05:44:30.481Z,18.34
2023-07-30T05:46:56.867Z,18.46
2023-07-30T05:49:23.416Z,18.54
2023-07-30T05:51:49.844Z,18.66
2023-07-30T05:54:16.252Z,18.64
2023-07-30T05:56:42.659Z,18.44
2023-07-30T05:59:09.060Z,18.27
2023-07-30T06:01:35.520Z,18.20
2023-07-30T06:04:02.169Z,18.10
2023-07-30T06:06:30.380Z,17.98
2023-07-30T06:08:57.237Z,17.92
2023-07-30T06:11:24.031Z,17.89
2023-07-30T06:13:50.447Z,17.90
2023-07-30T06:16:20.313Z,18.37
2023-07-30T06:18:46.887Z,18.71
2023-07-30T06:21:13.338Z,18.78
2023-07-30T06:23:39.843Z,18.82
2023-07-30T06:26:06.185Z,18.91
2023-07-30T06:28:32.653Z,19.06
2023-07-30T06:31:03.242Z,19.14
2023-07-30T06:33:32.777Z,19.17
2023-07-30T06:35:59.889Z,19.09
2023-07-30T06:38:26.938Z,19.09
2023-07-30T06:40:53.408Z,19.04
2023-07-30T06:43:19.927Z,18.80
2023-07-30T06:45:46.373Z,18.61
2023-07-30T06:48:12.728Z,18.46
2023-07-30T06:50:39.238Z,18.36
2023-07-30T06:53:05.630Z,18.50
2023-07-30T06:55:31.998Z,18.94
2023-07-30T06:57:58.490Z,19.16
2023-07-30T07:00:24.926Z,18.96
2023-07-30T07:02:51.670Z,18.67
2023-07-30T07:05:18.222Z,18.40
2023-07-30T07:07:44.681Z,18.23
2023-07-30T07:10:14.435Z,18.13
2023-07-30T07:12:40.942Z,18.08
2023-07-30T07:15:07.813Z,18.11
2023-07-30T07:17:34.274Z,18.02
2023-07-30T07:20:00.719Z,17.97
2023-07-30T07:22:27.131Z,18.04
2023-07-30T07:24:53.774Z,18.05
2023-07-30T07:27:20.292Z,18.01
2023-07-30T07:29:46.757Z,18.04
2023-07-30T07:32:13.134Z,18.13
2023-07-30T07:34:39.523Z,18.26
2023-07-30T07:37:05.973Z,18.26
2023-07-30T07:39:34.377Z,18.30
2023-07-30T07:42:00.931Z,18.31
2023-07-30T07:44:27.403Z,18.34
2023-07-30T07:46:53.974Z,18.39
2023-07-30T07:49:20.310Z,18.38
2023-07-30T07:51:46.714Z,18.39
2023-07-30T07:54:13.077Z,18.43
2023-07-30T07:56:39.433Z,18.46
2023-07-30T07:59:05.888Z,18.44
2023-07-30T08:01:32.410Z,18.36
2023-07-30T08:03:59.410Z,18.34
2023-07-30T08:06:25.925Z,18.43
2023-07-30T08:08:52.271Z,18.53
2023-07-30T08:11:18.660Z,18.51
2023-07-30T08:13:45.095Z,18.53
2023-07-30T08:16:11.478Z,18.54
2023-07-30T08:18:37.887Z,18.57
2023-07-30T08:21:04.502Z,18.56
2023-07-30T08:23:30.878Z,18.64
2023-07-30T08:25:57.257Z,18.75
2023-07-30T08:28:23.821Z,18.76
2023-07-30T08:30:50.222Z,18.93
2023-07-30T08:33:16.614Z,19.01
2023-07-30T08:35:42.990Z,18.94
2023-07-30T08:38:09.434Z,18.99
2023-07-30T08:40:35.960Z,18.97
2023-07-30T08:43:04.025Z,18.88
2023-07-30T08:45:30.451Z,18.80
2023-07-30T08:47:56.867Z,18.83
2023-07-30T08:50:23.913Z,18.86
2023-07-30T08:52:50.941Z,18.80
2023-07-30T08:55:18.324Z,18.69
2023-07-30T08:57:45.878Z,18.71
2023-07-30T09:00:15.755Z,18.78
2023-07-30T09:02:54.345Z,18.81
2023-07-30T09:05:21.961Z,18.95
2023-07-30T09:07:48.454Z,19.01
2023-07-30T09:10:15.235Z,19.14
2023-07-30T09:13:01.532Z,19.39
2023-07-30T09:15:38.967Z,19.37
2023-07-30T09:18:06.763Z,19.44
2023-07-30T09:20:41.074Z,19.47
2023-07-30T09:23:08.504Z,19.61
2023-07-30T09:25:36.152Z,19.73
2023-07-30T09:28:03.050Z,19.86
2023-07-30T09:30:29.594Z,19.95
2023-07-30T09:32:58.181Z,19.98
2023-07-30T09:35:26.148Z,20.07
2023-07-30T09:38:01.228Z,20.08
2023-07-30T09:40:35.910Z,20.14
2023-07-30T09:43:04.339Z,20.18
2023-07-30T09:45:35.021Z,20.12
2023-07-30T09:48:04.162Z,20.26
2023-07-30T09:50:31.067Z,20.35
2023-07-30T09:52:59.937Z,20.35
2023-07-30T09:55:26.382Z,20.26
2023-07-30T09:57:52.803Z,20.37
2023-07-30T10:00:19.496Z,20.39
2023-07-30T10:02:51.099Z,20.55
2023-07-30T10:05:19.766Z,20.70
2023-07-30T10:08:04.578Z,20.65
2023-07-30T10:10:32.110Z,20.60
2023-07-30T10:13:04.359Z,20.50
2023-07-30T10:15:30.821Z,20.45
2023-07-30T10:18:00.015Z,20.32
2023-07-30T10:20:30.080Z,20.31
2023-07-30T10:23:01.102Z,20.32
2023-07-30T10:25:44.439Z,20.32
2023-07-30T10:28:27.897Z,20.48
2023-07-30T10:31:11.352Z,20.41
2023-07-30T10:33:56.220Z,20.57
2023-07-30T10:36:46.140Z,20.65
2023-07-30T10:39:25.630Z,20.95
2023-07-30T10:41:55.438Z,21.25
2023-07-30T10:44:36.244Z,21.40
2023-07-30T10:47:04.897Z,21.39
2023-07-30T10:49:37.406Z,21.49
2023-07-30T10:52:04.023Z,21.50
2023-07-30T10:54:37.626Z,21.46
2023-07-30T10:57:04.839Z,21.33
2023-07-30T10:59:37.478Z,21.16
2023-07-30T11:02:04.885Z,21.02
2023-07-30T11:04:35.904Z,21.04
2023-07-30T11:07:04.148Z,21.04
2023-07-30T11:09:30.525Z,21.01
2023-07-30T11:11:57.068Z,20.97
2023-07-30T11:14:27.074Z,21.05
2023-07-30T11:16:55.580Z,21.08
2023-07-30T11:19:21.988Z,21.14
2023-07-30T11:21:54.741Z,21.10
2023-07-30T11:24:25.150Z,20.99
2023-07-30T11:27:01.937Z,20.95
2023-07-30T11:29:29.205Z,20.91
2023-07-30T11:32:00.605Z,20.84
2023-07-30T11:34:28.181Z,20.89
2023-07-30T11:36:55.421Z,21.02
2023-07-30T11:39:22.585Z,21.17
2023-07-30T11:41:49.169Z,21.36
2023-07-30T11:44:41.010Z,21.43
2023-07-30T11:47:08.553Z,21.38
2023-07-30T11:49:35.223Z,21.25
2023-07-30T11:52:09.513Z,21.18
2023-07-30T11:54:36.398Z,21.15
2023-07-30T11:57:02.830Z,21.18
2023-07-30T11:59:31.308Z,21.27
2023-07-30T12:01:58.454Z,21.30
2023-07-30T12:04:25.788Z,21.29
2023-07-30T12:06:54.609Z,21.29
2023-07-30T12:09:24.090Z,21.35
2023-07-30T12:11:54.168Z,21.48
2023-07-30T12:14:23.551Z,21.61
2023-07-30T12:16:49.890Z,21.57
2023-07-30T12:19:16.371Z,21.55
2023-07-30T12:21:42.965Z,21.51
2023-07-30T12:24:09.481Z,21.37
2023-07-30T12:26:36.966Z,21.31
2023-07-30T12:29:03.385Z,21.24
2023-07-30T12:31:29.788Z,21.25
2023-07-30T12:33:56.544Z,21.14
2023-07-30T12:36:22.956Z,21.16
2023-07-30T12:38:49.373Z,21.13
2023-07-30T12:41:15.812Z,21.10
2023-07-30T12:43:42.146Z,21.14
2023-07-30T12:46:08.607Z,21.15
2023-07-30T12:48:35.141Z,21.24
2023-07-30T12:51:01.492Z,21.39
2023-07-30T12:53:27.904Z,21.44
2023-07-30T12:55:54.583Z,21.34
2023-07-30T12:58:20.948Z,21.53
2023-07-30T13:00:47.327Z,21.65
2023-07-30T13:03:13.892Z,21.55
2023-07-30T13:05:40.439Z,21.64
2023-07-30T13:08:06.812Z,21.72
2023-07-30T13:10:33.293Z,21.67
2023-07-30T13:12:59.759Z,21.63
2023-07-30T13:15:26.143Z,21.63
2023-07-30T13:17:52.613Z,21.75
2023-07-30T13:20:20.362Z,21.88
2023-07-30T13:22:47.126Z,22.03
2023-07-30T13:25:13.570Z,22.03
2023-07-30T13:27:39.965Z,22.02
2023-07-30T13:30:07.253Z,21.97
2023-07-30T13:32:33.801Z,21.88
2023-07-30T13:35:00.203Z,21.87
2023-07-30T13:37:26.627Z,21.89
2023-07-30T13:39:52.966Z,22.00
2023-07-30T13:42:19.421Z,22.18
2023-07-30T13:44:45.930Z,22.36
2023-07-30T13:47:14.238Z,22.40
2023-07-30T13:49:41.600Z,22.48
2023-07-30T13:52:08.116Z,22.54
2023-07-30T13:54:34.498Z,22.69
2023-07-30T13:57:04.294Z,22.78
2023-07-30T13:59:30.767Z,22.82
2023-07-30T14:01:57.238Z,22.65
2023-07-30T14:04:23.635Z,22.53
2023-07-30T14:06:50.089Z,22.52
2023-07-30T14:09:17.294Z,22.44
2023-07-30T14:11:46.687Z,22.46
2023-07-30T14:14:13.246Z,22.57
2023-07-30T14:16:39.656Z,22.59
2023-07-30T14:19:06.059Z,22.65
2023-07-30T14:21:32.498Z,22.61
2023-07-30T14:23:58.923Z,22.63
2023-07-30T14:26:25.269Z,22.74
2023-07-30T14:28:51.755Z,22.86
2023-07-30T14:31:18.094Z,22.91
2023-07-30T14:33:44.492Z,23.09
2023-07-30T14:36:12.870Z,23.19
2023-07-30T14:38:39.576Z,23.15
2023-07-30T14:41:06.852Z,23.16
2023-07-30T14:43:33.374Z,23.12
2023-07-30T14:45:59.890Z,23.17
2023-07-30T14:48:26.642Z,23.26
2023-07-30T14:50:53.085Z,23.27
2023-07-30T14:53:19.461Z,23.30
2023-07-30T14:55:45.882Z,23.35
2023-07-30T14:58:12.567Z,23.40
2023-07-30T15:00:38.929Z,23.44
2023-07-30T15:03:05.767Z,23.40
2023-07-30T15:05:33.973Z,23.26
2023-07-30T15:08:00.594Z,23.13
2023-07-30T15:10:27.069Z,23.23
2023-07-30T15:12:53.517Z,23.17
2023-07-30T15:15:19.909Z,23.12
2023-07-30T15:17:46.403Z,23.00
2023-07-30T15:20:12.870Z,22.94
2023-07-30T15:22:39.310Z,22.98
2023-07-30T15:25:06.687Z,23.10
2023-07-30T15:27:33.125Z,23.07
2023-07-30T15:29:59.656Z,23.09
2023-07-30T15:32:30.820Z,23.05
2023-07-30T15:34:57.749Z,23.00
2023-07-30T15:37:24.338Z,22.86
2023-07-30T15:39:50.767Z,22.84
2023-07-30T15:42:17.697Z,22.70
2023-07-30T15:44:44.256Z,22.68
2023-07-30T15:47:12.282Z,22.83
2023-07-30T15:49:38.715Z,22.99
2023-07-30T15:52:05.606Z,23.20
2023-07-30T15:54:33.940Z,23.26
2023-07-30T15:57:00.579Z,23.29
2023-07-30T15:59:26.989Z,23.38
2023-07-30T16:01:53.458Z,23.43
2023-07-30T16:04:19.825Z,23.43
2023-07-30T16:06:46.166Z,23.35
2023-07-30T16:09:12.554Z,23.30
2023-07-30T16:11:39.790Z,23.16
2023-07-30T16:14:06.171Z,23.04
2023-07-30T16:16:32.640Z,22.95
2023-07-30T16:19:01.710Z,22.86
2023-07-30T16:21:28.045Z,22.81
2023-07-30T16:23:54.456Z,22.76
2023-07-30T16:26:20.805Z,22.76
2023-07-30T16:28:47.169Z,22.73
2023-07-30T16:31:13.602Z,22.69
2023-07-30T16:33:40.030Z,22.67
2023-07-30T16:36:07.959Z,22.64
2023-07-30T16:38:35.872Z,22.68
2023-07-30T16:41:02.393Z,22.65
2023-07-30T16:43:28.757Z,22.66
2023-07-30T16:46:00.065Z,22.61
2023-07-30T16:48:26.522Z,22.59
2023-07-30T16:50:52.859Z,22.59
2023-07-30T16:53:19.203Z,22.55
2023-07-30T16:55:45.540Z,22.57
2023-07-30T16:58:11.996Z,22.58
2023-07-30T17:00:38.799Z,22.59
2023-07-30T17:03:07.976Z,22.62
2023-07-30T17:05:34.638Z,22.65
2023-07-30T17:08:01.104Z,22.65
2023-07-30T17:10:27.571Z,22.65
2023-07-30T17:12:54.215Z,22.64
2023-07-30T17:15:20.691Z,22.63
2023-07-30T17:17:50.256Z,22.64
2023-07-30T17:20:16.815Z,22.64
2023-07-30T17:22:43.266Z,22.64
2023-07-30T17:25:09.948Z,22.62
2023-07-30T17:27:36.563Z,22.62
2023-07-30T17:30:03.011Z,22.57
2023-07-30T17:32:29.556Z,22.58
2023-07-30T17:34:56.425Z,22.57
2023-07-30T17:37:22.892Z,22.55
2023-07-30T17:39:49.312Z,22.53
2023-07-30T17:42:15.799Z,22.51
2023-07-30T17:44:42.460Z,22.58
2023-07-30T17:47:08.890Z,22.56
2023-07-30T17:49:35.395Z,22.56
2023-07-30T17:52:02.317Z,22.54
2023-07-30T17:54:28.686Z,22.48
2023-07-30T17:56:55.067Z,22.45
2023-07-30T17:59:22.862Z,22.37
2023-07-30T18:01:49.393Z,22.36
2023-07-30T18:04:15.780Z,22.32
2023-07-30T18:06:42.154Z,22.33
2023-07-30T18:09:08.541Z,22.23
2023-07-30T18:11:34.972Z,22.15
2023-07-30T18:14:01.349Z,21.98
2023-07-30T18:16:27.734Z,21.76
2023-07-30T18:18:54.201Z,21.58
2023-07-30T18:21:20.566Z,21.34
2023-07-30T18:23:47.302Z,21.10
2023-07-30T18:26:13.869Z,20.97
2023-07-30T18:28:40.339Z,20.86
2023-07-30T18:31:06.857Z,20.84
2023-07-30T18:33:33.420Z,20.74
2023-07-30T18:36:00.384Z,20.65
2023-07-30T18:38:27.585Z,20.57
2023-07-30T18:40:54.014Z,20.49
2023-07-30T18:43:20.927Z,20.43
2023-07-30T18:45:52.887Z,20.30
2023-07-30T18:48:19.590Z,20.25
2023-07-30T18:50:50.976Z,20.21
2023-07-30T18:53:17.511Z,20.19
2023-07-30T18:55:43.993Z,20.19
2023-07-30T18:58:10.813Z,20.11
2023-07-30T19:00:37.190Z,20.10
2023-07-30T19:03:03.712Z,20.06
2023-07-30T19:05:30.239Z,19.99
2023-07-30T19:07:58.898Z,19.98
2023-07-30T19:10:25.289Z,19.92
2023-07-30T19:12:51.651Z,19.89
2023-07-30T19:15:18.051Z,19.80
2023-07-30T19:17:44.475Z,19.82
2023-07-30T19:20:11.565Z,19.77
2023-07-30T19:22:37.914Z,19.81
2023-07-30T19:25:04.763Z,19.71
2023-07-30T19:27:31.168Z,19.73
2023-07-30T19:29:57.576Z,19.68
2023-07-30T19:32:24.019Z,19.56
2023-07-30T19:34:50.359Z,19.59
2023-07-30T19:37:16.692Z,19.51
2023-07-30T19:39:43.239Z,19.49
2023-07-30T19:42:09.886Z,19.39
2023-07-30T19:44:36.410Z,19.29
2023-07-30T19:47:02.931Z,19.27
2023-07-30T19:49:29.678Z,19.21
2023-07-30T19:51:56.501Z,19.18
2023-07-30T19:54:23.408Z,19.10
2023-07-30T19:56:49.840Z,18.93
2023-07-30T19:59:16.244Z,19.01
2023-07-30T20:01:42.732Z,19.05
2023-07-30T20:04:09.112Z,18.91
2023-07-30T20:06:36.269Z,18.88
2023-07-30T20:09:03.555Z,18.89
2023-07-30T20:11:29.928Z,18.87
2023-07-30T20:13:56.307Z,18.82
2023-07-30T20:16:22.762Z,18.78
2023-07-30T20:18:49.131Z,18.74
2023-07-30T20:21:16.298Z,18.65
2023-07-30T20:23:42.736Z,18.56
2023-07-30T20:26:16.839Z,18.59
2023-07-30T20:28:45.052Z,18.55
2023-07-30T20:31:11.682Z,18.41
2023-07-30T20:33:38.129Z,18.32
2023-07-30T20:36:05.343Z,18.30
2023-07-30T20:38:31.719Z,18.27
2023-07-30T20:40:59.743Z,18.24
2023-07-30T20:43:27.204Z,18.16
2023-07-30T20:45:53.685Z,18.22
2023-07-30T20:48:20.122Z,18.21
2023-07-30T20:50:46.969Z,18.24
2023-07-30T20:53:15.220Z,18.21
2023-07-30T20:55:42.242Z,18.24
2023-07-30T20:58:08.660Z,18.21
2023-07-30T21:00:35.013Z,18.14
2023-07-30T21:03:01.463Z,18.17
2023-07-30T21:05:27.944Z,18.14
2023-07-30T21:07:54.282Z,18.15
2023-07-30T21:10:20.645Z,18.07
2023-07-30T21:12:47.156Z,18.03
2023-07-30T21:15:13.507Z,18.12
2023-07-30T21:17:40.002Z,18.17
2023-07-30T21:20:07.146Z,18.15
2023-07-30T21:22:33.493Z,18.08
2023-07-30T21:24:59.957Z,18.11
2023-07-30T21:27:26.457Z,18.14
2023-07-30T21:29:52.940Z,18.11
2023-07-30T21:32:19.393Z,18.10
2023-07-30T21:34:45.964Z,18.06
2023-07-30T21:37:12.369Z,18.09
2023-07-30T21:39:38.813Z,18.10
2023-07-30T21:42:05.452Z,18.14
2023-07-30T21:44:33.858Z,18.15
2023-07-30T21:47:00.426Z,18.10
2023-07-30T21:49:26.877Z,18.11
2023-07-30T21:51:55.968Z,18.10
2023-07-30T21:54:22.378Z,18.08
2023-07-30T21:56:49.048Z,18.07
2023-07-30T21:59:15.424Z,18.04
2023-07-30T22:01:41.798Z,18.02
2023-07-30T22:04:08.175Z,18.10
2023-07-30T22:06:34.542Z,18.12
2023-07-30T22:09:01.127Z,18.13
2023-07-30T22:11:28.062Z,18.10
2023-07-30T22:13:54.485Z,18.02
2023-07-30T22:16:20.982Z,18.03
2023-07-30T22:18:47.427Z,18.01
2023-07-30T22:21:14.809Z,17.97
2023-07-30T22:23:41.200Z,17.96
2023-07-30T22:26:07.584Z,17.93
2023-07-30T22:28:33.972Z,17.95
2023-07-30T22:31:00.392Z,17.99
2023-07-30T22:33:26.939Z,17.91
2023-07-30T22:35:54.906Z,17.93
2023-07-30T22:38:21.513Z,17.95
2023-07-30T22:40:48.002Z,17.96
2023-07-30T22:43:14.333Z,17.95
2023-07-30T22:45:40.724Z,17.93
2023-07-30T22:48:07.262Z,17.90
2023-07-30T22:50:33.622Z,17.91
2023-07-30T22:53:00.026Z,17.89
2023-07-30T22:55:26.461Z,17.85
2023-07-30T22:57:52.824Z,17.86
2023-07-30T23:00:19.236Z,17.89
2023-07-30T23:02:45.708Z,17.94
2023-07-30T23:05:12.136Z,17.99
2023-07-30T23:07:38.485Z,17.99
2023-07-30T23:10:05.385Z,17.95
2023-07-30T23:12:31.738Z,17.92
2023-07-30T23:14:58.086Z,17.95
2023-07-30T23:17:24.551Z,17.92
2023-07-30T23:19:51.009Z,17.92
2023-07-30T23:22:17.357Z,17.94
2023-07-30T23:24:43.965Z,17.97
2023-07-30T23:27:10.293Z,18.04
2023-07-30T23:29:36.670Z,18.04
2023-07-30T23:32:03.194Z,18.06
2023-07-30T23:34:29.551Z,18.01
2023-07-30T23:36:55.942Z,18.00
2023-07-30T23:39:22.599Z,17.99
2023-07-30T23:41:49.033Z,18.01
2023-07-30T23:44:15.438Z,18.02
2023-07-30T23:46:42.082Z,18.10
2023-07-30T23:49:08.811Z,18.14
2023-07-30T23:51:35.245Z,18.19
2023-07-30T23:54:01.641Z,18.19
2023-07-30T23:56:28.116Z,18.21
2023-07-30T23:58:54.480Z,18.24
